createdAt,value
2018-09-15T00:00:15.297Z,99.99
2018-09-15T00:01:14.579Z,99.99
2018-09-15T00:02:35.959Z,99.99
2018-09-15T00:03:36.384Z,99.99
2018-09-15T00:04:36.878Z,99.99
2018-09-15T00:05:35.979Z,99.99
2018-09-15T00:06:37.977Z,99.99
2018-09-15T00:07:36.239Z,99.99
2018-09-15T00:08:57.720Z,99.99
2018-09-15T00:09:57.841Z,99.99
2018-09-15T00:10:58.248Z,99.99
2018-09-15T00:11:57.723Z,99.99
2018-09-15T00:12:58.052Z,99.99
2018-09-15T00:13:58.474Z,99.99
2018-09-15T00:15:18.932Z,99.99
2018-09-15T00:16:19.394Z,99.99
2018-09-15T00:17:41.412Z,99.99
2018-09-15T00:18:41.633Z,99.99
2018-09-15T00:19:42.476Z,99.99
2018-09-15T00:20:41.785Z,99.99
2018-09-15T00:21:41.189Z,99.99
2018-09-15T00:22:41.639Z,99.99
2018-09-15T00:23:41.007Z,99.99
2018-09-15T00:24:41.407Z,99.99
2018-09-15T00:25:41.554Z,99.99
2018-09-15T00:26:41.791Z,99.99
2018-09-15T00:28:22.999Z,99.99
2018-09-15T00:29:23.268Z,99.99
2018-09-15T00:30:23.666Z,99.99
2018-09-15T00:31:23.112Z,99.99
2018-09-15T00:32:23.487Z,99.99
2018-09-15T00:33:23.945Z,99.99
2018-09-15T00:34:23.204Z,99.99
2018-09-15T00:35:23.647Z,99.99
2018-09-15T00:36:44.143Z,99.99
2018-09-15T00:37:44.487Z,99.99
2018-09-15T00:38:44.865Z,99.99
2018-09-15T00:39:44.319Z,99.99
2018-09-15T00:40:44.674Z,99.99
2018-09-15T00:41:45.080Z,99.99
2018-09-15T00:43:25.949Z,99.99
2018-09-15T00:44:26.997Z,99.99
2018-09-15T00:45:26.354Z,99.99
2018-09-15T00:46:26.728Z,99.99
2018-09-15T00:47:27.169Z,99.99
2018-09-15T00:48:38.671Z,99.99
2018-09-15T00:49:27.335Z,99.99
2018-09-15T00:50:26.902Z,99.99
2018-09-15T00:51:27.236Z,99.99
2018-09-15T00:52:26.657Z,99.99
2018-09-15T00:53:26.922Z,99.99
2018-09-15T00:54:26.339Z,99.99
2018-09-15T00:55:26.347Z,99.99
2018-09-15T00:56:26.703Z,99.99
2018-09-15T00:57:26.904Z,99.99
2018-09-15T00:58:26.119Z,99.99
2018-09-15T00:59:26.170Z,99.99
2018-09-15T01:00:26.201Z,99.99
2018-09-15T01:01:26.338Z,99.99
2018-09-15T01:02:26.639Z,99.99
2018-09-15T01:03:26.763Z,99.99
2018-09-15T01:04:48.608Z,99.99
2018-09-15T01:05:49.664Z,99.99
2018-09-15T01:07:30.806Z,99.99
2018-09-15T01:08:31.029Z,99.99
2018-09-15T01:09:31.537Z,99.99
2018-09-15T01:10:30.991Z,99.99
2018-09-15T01:11:31.345Z,99.99
2018-09-15T01:12:31.667Z,99.99
2018-09-15T01:13:30.937Z,99.99
2018-09-15T01:14:31.406Z,99.99
2018-09-15T01:15:52.499Z,99.99
2018-09-15T01:16:52.592Z,99.99
2018-09-15T01:17:52.753Z,99.99
2018-09-15T01:18:52.786Z,99.99
2018-09-15T01:20:13.786Z,99.99
2018-09-15T01:21:14.004Z,99.99
2018-09-15T01:22:15.326Z,99.99
2018-09-15T01:23:14.354Z,99.99
2018-09-15T01:24:14.531Z,99.99
2018-09-15T01:25:14.702Z,99.99
2018-09-15T01:26:13.655Z,99.99
2018-09-15T01:27:13.799Z,99.99
2018-09-15T01:28:13.831Z,99.99
2018-09-15T01:29:14.074Z,99.99
2018-09-15T01:30:35.065Z,99.99
2018-09-15T01:31:35.090Z,99.99
2018-09-15T01:32:55.948Z,99.99
2018-09-15T01:33:56.219Z,99.99
2018-09-15T01:34:56.335Z,99.99
2018-09-15T01:35:56.519Z,99.99
2018-09-15T01:36:56.525Z,99.99
2018-09-15T01:37:56.935Z,99.99
2018-09-15T01:38:56.849Z,99.99
2018-09-15T01:39:55.963Z,99.99
2018-09-15T01:40:56.054Z,99.99
2018-09-15T01:41:56.150Z,99.99
2018-09-15T01:42:56.228Z,99.99
2018-09-15T01:43:56.314Z,99.99
2018-09-15T01:44:56.549Z,99.99
2018-09-15T01:45:56.622Z,99.99
2018-09-15T01:46:56.811Z,99.99
2018-09-15T01:47:56.858Z,99.99
2018-09-15T01:48:57.036Z,99.99
2018-09-15T01:49:57.489Z,99.99
2018-09-15T01:50:56.998Z,99.99
2018-09-15T01:51:56.401Z,99.99
2018-09-15T01:52:56.824Z,99.99
2018-09-15T01:53:57.022Z,99.99
2018-09-15T01:54:56.164Z,99.99
2018-09-15T01:55:56.305Z,99.99
2018-09-15T01:56:58.003Z,99.99
2018-09-15T01:57:56.373Z,99.99
2018-09-15T01:58:56.488Z,99.99
2018-09-15T01:59:56.674Z,99.99
2018-09-15T02:00:56.974Z,99.99
2018-09-15T02:01:55.948Z,99.99
2018-09-15T02:03:17.988Z,99.99
2018-09-15T02:04:18.331Z,99.99
2018-09-15T02:05:18.392Z,99.99
2018-09-15T02:06:18.438Z,99.99
2018-09-15T02:07:18.772Z,99.99
2018-09-15T02:08:41.368Z,99.99
2018-09-15T02:09:41.701Z,99.99
2018-09-15T02:10:42.150Z,99.99
2018-09-15T02:11:41.387Z,99.99
2018-09-15T02:12:41.521Z,99.99
2018-09-15T02:13:41.954Z,99.99
2018-09-15T02:14:42.059Z,99.99
2018-09-15T02:15:42.049Z,99.99
2018-09-15T02:16:41.291Z,99.99
2018-09-15T02:17:41.519Z,99.99
2018-09-15T02:18:41.677Z,99.99
2018-09-15T02:19:41.623Z,99.99
2018-09-15T02:20:41.856Z,99.99
2018-09-15T02:21:41.856Z,99.99
2018-09-15T02:23:02.757Z,99.99
2018-09-15T02:24:02.778Z,99.99
2018-09-15T02:25:02.919Z,99.99
2018-09-15T02:26:03.283Z,99.99
2018-09-15T02:27:03.334Z,99.99
2018-09-15T02:28:03.200Z,99.99
2018-09-15T02:29:03.408Z,99.99
2018-09-15T02:30:03.462Z,99.99
2018-09-15T02:31:03.447Z,99.99
2018-09-15T02:32:03.702Z,99.99
2018-09-15T02:33:02.774Z,99.99
2018-09-15T02:34:03.651Z,99.99
2018-09-15T02:35:03.890Z,99.99
2018-09-15T02:36:03.145Z,99.99
2018-09-15T02:37:03.476Z,99.99
2018-09-15T02:38:03.489Z,99.99
2018-09-15T02:39:03.639Z,99.99
2018-09-15T02:40:03.658Z,99.99
2018-09-15T02:41:02.696Z,99.99
2018-09-15T02:42:03.011Z,99.99
2018-09-15T02:43:02.985Z,99.99
2018-09-15T02:44:03.261Z,99.99
2018-09-15T02:45:03.406Z,99.99
2018-09-15T02:46:03.608Z,99.99
2018-09-15T02:47:02.949Z,99.99
2018-09-15T02:48:03.422Z,99.99
2018-09-15T02:49:03.524Z,99.99
2018-09-15T02:50:03.807Z,99.99
2018-09-15T02:51:02.898Z,99.99
2018-09-15T02:52:03.352Z,99.99
2018-09-15T02:53:03.367Z,99.99
2018-09-15T02:54:03.578Z,99.99
2018-09-15T02:55:03.710Z,99.99
2018-09-15T02:56:02.900Z,99.99
2018-09-15T02:57:03.050Z,99.99
2018-09-15T02:58:04.029Z,99.99
2018-09-15T02:59:23.846Z,99.99
2018-09-15T03:00:24.775Z,99.99
2018-09-15T03:01:23.977Z,99.99
2018-09-15T03:02:24.021Z,99.99
2018-09-15T03:03:24.195Z,99.99
2018-09-15T03:04:24.444Z,99.99
2018-09-15T03:05:24.581Z,99.99
2018-09-15T03:06:24.621Z,99.99
2018-09-15T03:07:24.640Z,99.99
2018-09-15T03:08:24.537Z,99.99
2018-09-15T03:09:24.782Z,99.99
2018-09-15T03:10:24.878Z,99.99
2018-09-15T03:11:24.116Z,99.99
2018-09-15T03:12:24.260Z,99.99
2018-09-15T03:13:24.292Z,99.99
2018-09-15T03:14:24.660Z,99.99
2018-09-15T03:15:25.041Z,99.99
2018-09-15T03:16:24.223Z,99.99
2018-09-15T03:17:24.230Z,99.99
2018-09-15T03:18:24.342Z,99.99
2018-09-15T03:19:24.393Z,99.99
2018-09-15T03:20:45.256Z,99.99
2018-09-15T03:21:45.374Z,99.99
2018-09-15T03:22:45.552Z,99.99
2018-09-15T03:23:45.810Z,99.99
2018-09-15T03:24:46.962Z,99.99
2018-09-15T03:25:46.189Z,99.99
2018-09-15T03:26:46.334Z,99.99
2018-09-15T03:28:06.905Z,99.99
2018-09-15T03:29:07.893Z,99.99
2018-09-15T03:30:07.994Z,99.99
2018-09-15T03:31:07.003Z,99.99
2018-09-15T03:32:07.159Z,99.99
2018-09-15T03:33:07.405Z,99.99
2018-09-15T03:34:07.626Z,99.99
2018-09-15T03:35:07.816Z,99.99
2018-09-15T03:36:07.826Z,99.99
2018-09-15T03:37:07.929Z,99.99
2018-09-15T03:38:07.129Z,99.99
2018-09-15T03:39:29.245Z,99.99
2018-09-15T03:40:28.633Z,99.99
2018-09-15T03:41:29.405Z,99.99
2018-09-15T03:42:49.510Z,99.99
2018-09-15T03:44:10.242Z,99.99
2018-09-15T03:45:31.365Z,99.99
2018-09-15T03:46:31.463Z,99.99
2018-09-15T03:47:31.587Z,99.99
2018-09-15T03:48:31.671Z,99.99
2018-09-15T03:49:32.016Z,99.99
2018-09-15T03:50:32.508Z,99.99
2018-09-15T03:51:31.725Z,99.99
2018-09-15T03:52:31.892Z,99.99
2018-09-15T03:53:52.777Z,99.99
2018-09-15T03:54:52.875Z,99.99
2018-09-15T03:55:53.083Z,99.99
2018-09-15T03:57:14.091Z,99.99
2018-09-15T03:58:37.079Z,99.99
2018-09-15T03:59:37.305Z,99.99
2018-09-15T04:00:37.492Z,99.99
2018-09-15T04:03:01.373Z,99.99
2018-09-15T04:04:22.426Z,99.99
2018-09-15T04:05:23.558Z,99.99
2018-09-15T04:06:26.991Z,99.99
2018-09-15T04:07:23.214Z,99.99
2018-09-15T04:08:23.282Z,99.99
2018-09-15T04:09:23.426Z,99.99
2018-09-15T04:10:23.600Z,99.99
2018-09-15T04:11:23.395Z,99.99
2018-09-15T04:12:22.425Z,99.99
2018-09-15T04:13:44.403Z,99.99
2018-09-15T04:14:44.529Z,99.99
2018-09-15T04:15:44.724Z,99.99
2018-09-15T04:16:44.684Z,99.99
2018-09-15T04:17:44.747Z,99.99
2018-09-15T04:18:47.692Z,99.99
2018-09-15T04:19:46.008Z,99.99
2018-09-15T04:20:45.574Z,99.99
2018-09-15T04:21:45.217Z,99.99
2018-09-15T04:22:45.275Z,99.99
2018-09-15T04:23:44.451Z,99.99
2018-09-15T04:24:44.472Z,99.99
2018-09-15T04:25:45.974Z,99.99
2018-09-15T04:27:05.764Z,99.99
2018-09-15T04:28:06.437Z,99.99
2018-09-15T04:29:05.763Z,99.99
2018-09-15T04:30:05.795Z,99.99
2018-09-15T04:31:07.279Z,99.99
2018-09-15T04:32:06.562Z,99.99
2018-09-15T04:33:26.663Z,99.99
2018-09-15T04:34:27.416Z,99.99
2018-09-15T04:35:29.037Z,99.99
2018-09-15T04:36:27.953Z,99.99
2018-09-15T04:37:27.042Z,99.99
2018-09-15T04:38:27.167Z,99.99
2018-09-15T04:39:27.418Z,99.99
2018-09-15T04:40:27.833Z,99.99
2018-09-15T04:41:27.099Z,99.99
2018-09-15T04:42:27.723Z,99.99
2018-09-15T04:43:29.946Z,99.99
2018-09-15T04:44:26.999Z,99.99
2018-09-15T04:45:27.020Z,99.99
2018-09-15T04:46:27.034Z,99.99
2018-09-15T04:47:27.906Z,99.99
2018-09-15T04:48:27.085Z,99.99
2018-09-15T04:49:49.901Z,99.99
2018-09-15T04:50:51.762Z,99.99
2018-09-15T04:52:11.950Z,99.99
2018-09-15T04:53:12.147Z,99.99
2018-09-15T04:54:32.536Z,99.99
2018-09-15T04:55:32.773Z,99.99
2018-09-15T04:56:33.064Z,99.99
2018-09-15T04:57:33.192Z,99.99
2018-09-15T04:58:32.700Z,99.99
2018-09-15T04:59:32.971Z,99.99
2018-09-15T05:00:33.138Z,99.99
2018-09-15T05:01:33.256Z,99.99
2018-09-15T05:02:32.413Z,99.99
2018-09-15T05:03:32.744Z,99.99
2018-09-15T05:04:32.945Z,99.99
2018-09-15T05:05:33.337Z,99.99
2018-09-15T05:06:32.602Z,99.99
2018-09-15T05:07:33.004Z,99.99
2018-09-15T05:08:33.364Z,99.99
2018-09-15T05:09:32.915Z,99.99
2018-09-15T05:10:33.286Z,99.99
2018-09-15T05:11:32.609Z,99.99
2018-09-15T05:12:32.984Z,99.99
2018-09-15T05:13:34.122Z,99.99
2018-09-15T05:14:33.346Z,99.99
2018-09-15T05:15:32.525Z,99.99
2018-09-15T05:16:33.704Z,99.99
2018-09-15T05:17:54.021Z,99.99
2018-09-15T05:18:54.422Z,99.99
2018-09-15T05:19:54.858Z,99.99
2018-09-15T05:20:53.902Z,99.99
2018-09-15T05:21:54.230Z,99.99
2018-09-15T05:22:55.481Z,99.99
2018-09-15T05:23:54.981Z,99.99
2018-09-15T05:24:54.009Z,99.99
2018-09-15T05:25:56.194Z,99.99
2018-09-15T05:26:54.238Z,99.99
2018-09-15T05:27:54.166Z,99.99
2018-09-15T05:29:15.313Z,99.99
2018-09-15T05:30:15.654Z,99.99
2018-09-15T05:31:15.868Z,99.99
2018-09-15T05:32:15.834Z,99.99
2018-09-15T05:33:15.222Z,99.99
2018-09-15T05:34:15.928Z,99.99
2018-09-15T05:35:36.326Z,99.99
2018-09-15T05:36:36.597Z,99.99
2018-09-15T05:37:36.864Z,99.99
2018-09-15T05:38:36.861Z,99.99
2018-09-15T05:39:37.155Z,99.99
2018-09-15T05:40:36.274Z,99.99
2018-09-15T05:41:36.620Z,99.99
2018-09-15T05:42:36.915Z,99.99
2018-09-15T05:43:36.974Z,99.99
2018-09-15T05:44:36.845Z,99.99
2018-09-15T05:45:37.127Z,99.99
2018-09-15T05:46:37.632Z,99.99
2018-09-15T05:47:36.803Z,99.99
2018-09-15T05:48:36.939Z,99.99
2018-09-15T05:49:36.392Z,99.99
2018-09-15T05:50:36.813Z,99.99
2018-09-15T05:51:57.961Z,99.99
2018-09-15T05:52:58.099Z,99.99
2018-09-15T05:53:58.562Z,99.99
2018-09-15T05:54:58.840Z,99.99
2018-09-15T05:55:58.281Z,99.99
2018-09-15T05:56:58.561Z,99.99
2018-09-15T05:58:19.628Z,99.99
2018-09-15T05:59:19.946Z,99.99
2018-09-15T06:00:20.385Z,99.99
2018-09-15T06:01:19.793Z,99.99
2018-09-15T06:02:20.116Z,99.99
2018-09-15T06:03:20.328Z,99.99
2018-09-15T06:04:19.788Z,99.99
2018-09-15T06:05:20.154Z,99.99
2018-09-15T06:06:20.097Z,99.99
2018-09-15T06:07:20.389Z,99.99
2018-09-15T06:08:19.540Z,99.99
2018-09-15T06:09:40.683Z,99.99
2018-09-15T06:10:40.851Z,99.99
2018-09-15T06:11:41.183Z,99.99
2018-09-15T06:12:41.219Z,99.99
2018-09-15T06:13:41.469Z,99.99
2018-09-15T06:14:40.872Z,99.99
2018-09-15T06:15:41.159Z,99.99
2018-09-15T06:16:46.349Z,99.99
2018-09-15T06:18:24.766Z,99.99
2018-09-15T06:19:24.259Z,99.99
2018-09-15T06:20:24.649Z,99.99
2018-09-15T06:21:24.087Z,99.99
2018-09-15T06:22:24.411Z,99.99
2018-09-15T06:23:24.273Z,99.99
2018-09-15T06:24:24.670Z,99.99
2018-09-15T06:25:26.105Z,99.99
2018-09-15T06:26:24.808Z,99.99
2018-09-15T06:27:24.421Z,99.99
2018-09-15T06:28:24.509Z,99.99
2018-09-15T06:29:24.600Z,99.99
2018-09-15T06:30:24.459Z,99.99
2018-09-15T06:31:24.386Z,99.99
2018-09-15T06:32:25.258Z,99.99
2018-09-15T06:33:25.727Z,99.99
2018-09-15T06:34:24.894Z,99.99
2018-09-15T06:35:24.667Z,99.99
2018-09-15T06:36:24.676Z,99.99
2018-09-15T06:37:24.703Z,99.99
2018-09-15T06:38:24.235Z,99.99
2018-09-15T06:39:25.426Z,99.99
2018-09-15T06:40:24.249Z,99.99
2018-09-15T06:41:25.335Z,99.99
2018-09-15T06:42:25.303Z,99.99
2018-09-15T06:43:27.715Z,99.99
2018-09-15T06:44:24.660Z,99.99
2018-09-15T06:46:08.049Z,99.99
2018-09-15T06:47:09.153Z,99.99
2018-09-15T06:48:08.143Z,99.99
2018-09-15T06:49:08.906Z,99.99
2018-09-15T06:50:08.791Z,99.99
2018-09-15T06:51:09.079Z,99.99
2018-09-15T06:52:09.360Z,99.99
2018-09-15T06:53:07.582Z,99.99
2018-09-15T06:54:08.200Z,99.99
2018-09-15T06:55:08.899Z,99.99
2018-09-15T06:56:30.381Z,99.99
2018-09-15T06:57:30.648Z,99.99
2018-09-15T06:58:31.128Z,99.99
2018-09-15T06:59:30.605Z,99.99
2018-09-15T07:00:54.328Z,99.99
2018-09-15T07:02:15.438Z,99.99
2018-09-15T07:03:38.758Z,99.99
2018-09-15T07:04:39.181Z,99.63
2018-09-15T07:05:38.543Z,98.82
2018-09-15T07:06:39.200Z,98.24
2018-09-15T07:07:38.769Z,97.86
2018-09-15T07:08:38.127Z,96.89
2018-09-15T07:09:39.162Z,97.24
2018-09-15T07:10:38.417Z,95.79
2018-09-15T07:11:38.816Z,95.31
2018-09-15T07:12:39.382Z,95.12
2018-09-15T07:13:38.627Z,94.45
2018-09-15T07:14:39.116Z,94.16
2018-09-15T07:15:38.655Z,93.73
2018-09-15T07:16:38.945Z,92.61
2018-09-15T07:17:38.455Z,91.56
2018-09-15T07:18:38.700Z,89.92
2018-09-15T07:19:59.153Z,89.06
2018-09-15T07:20:59.535Z,89.44
2018-09-15T07:21:59.750Z,89.92
2018-09-15T07:22:58.970Z,90.59
2018-09-15T07:24:00.120Z,89.73
2018-09-15T07:24:59.430Z,89.15
2018-09-15T07:25:59.861Z,89.92
2018-09-15T07:26:59.233Z,90.59
2018-09-15T07:27:59.937Z,89.88
2018-09-15T07:28:59.322Z,90.45
2018-09-15T07:29:59.683Z,90.84
2018-09-15T07:30:59.029Z,91.03
2018-09-15T07:32:20.774Z,91.08
2018-09-15T07:33:21.043Z,91.22
2018-09-15T07:34:22.113Z,91.52
2018-09-15T07:35:21.936Z,91.71
2018-09-15T07:36:21.196Z,91.85
2018-09-15T07:37:21.577Z,90.98
2018-09-15T07:38:21.019Z,91.17
2018-09-15T07:39:21.299Z,89.92
2018-09-15T07:40:21.567Z,90.31
2018-09-15T07:41:20.851Z,91.85
2018-09-15T07:42:21.156Z,92.04
2018-09-15T07:43:21.577Z,90.50
2018-09-15T07:44:21.650Z,91.13
2018-09-15T07:45:21.126Z,91.99
2018-09-15T07:46:21.612Z,91.42
2018-09-15T07:47:20.825Z,91.61
2018-09-15T07:48:21.316Z,92.38
2018-09-15T07:49:20.654Z,92.96
2018-09-15T07:50:20.820Z,92.81
2018-09-15T07:51:21.207Z,91.66
2018-09-15T07:52:22.107Z,90.69
2018-09-15T07:53:20.657Z,90.41
2018-09-15T07:55:05.892Z,91.27
2018-09-15T07:56:06.818Z,92.29
2018-09-15T07:57:27.666Z,93.49
2018-09-15T07:58:27.674Z,94.45
2018-09-15T07:59:27.845Z,96.13
2018-09-15T08:00:49.439Z,98.58
2018-09-15T08:01:49.827Z,99.99
2018-09-15T08:03:53.162Z,99.99
2018-09-15T08:04:53.617Z,99.99
2018-09-15T08:05:53.852Z,99.99
2018-09-15T08:06:53.449Z,99.99
2018-09-15T08:08:14.948Z,99.99
2018-09-15T08:09:15.103Z,99.99
2018-09-15T08:10:15.518Z,99.99
2018-09-15T08:11:15.812Z,99.99
2018-09-15T08:12:15.166Z,99.99
2018-09-15T08:13:36.869Z,99.99
2018-09-15T08:14:36.982Z,99.99
2018-09-15T08:15:37.324Z,99.99
2018-09-15T08:16:38.199Z,99.99
2018-09-15T08:17:37.605Z,99.99
2018-09-15T08:18:37.033Z,99.99
2018-09-15T08:19:37.447Z,99.99
2018-09-15T08:20:37.948Z,99.99
2018-09-15T08:21:37.250Z,99.99
2018-09-15T08:22:58.623Z,99.99
2018-09-15T08:23:58.968Z,99.99
2018-09-15T08:24:59.195Z,99.99
2018-09-15T08:25:59.586Z,99.99
2018-09-15T08:27:00.438Z,99.99
2018-09-15T08:27:59.909Z,99.99
2018-09-15T08:28:59.307Z,99.99
2018-09-15T08:29:58.732Z,99.99
2018-09-15T08:30:59.474Z,99.99
2018-09-15T08:32:20.563Z,99.99
2018-09-15T08:34:03.622Z,99.99
2018-09-15T08:35:04.041Z,99.99
2018-09-15T08:36:04.324Z,99.99
2018-09-15T08:37:03.692Z,99.99
2018-09-15T08:38:04.200Z,99.99
2018-09-15T08:39:04.510Z,99.99
2018-09-15T08:40:03.884Z,99.99
2018-09-15T08:41:04.303Z,99.99
2018-09-15T08:42:03.500Z,99.99
2018-09-15T08:43:04.004Z,99.99
2018-09-15T08:44:04.577Z,98.10
2018-09-15T08:45:04.186Z,94.34
2018-09-15T08:46:04.593Z,93.04
2018-09-15T08:47:04.550Z,91.60
2018-09-15T08:48:04.265Z,91.69
2018-09-15T08:49:24.677Z,91.21
2018-09-15T08:50:25.097Z,90.83
2018-09-15T08:51:46.406Z,89.14
2018-09-15T08:52:46.874Z,88.56
2018-09-15T08:53:47.225Z,88.17
2018-09-15T08:54:47.456Z,89.14
2018-09-15T08:55:46.867Z,88.37
2018-09-15T08:56:48.434Z,88.85
2018-09-15T08:57:46.716Z,89.04
2018-09-15T08:58:47.149Z,89.23
2018-09-15T08:59:46.749Z,88.56
2018-09-15T09:01:09.063Z,87.79
2018-09-15T09:02:09.475Z,86.43
2018-09-15T09:03:09.950Z,84.89
2018-09-15T09:04:09.359Z,85.27
2018-09-15T09:05:09.734Z,83.87
2018-09-15T09:06:09.210Z,82.75
2018-09-15T09:07:09.634Z,81.68
2018-09-15T09:08:09.281Z,81.20
2018-09-15T09:09:31.910Z,81.20
2018-09-15T09:10:31.326Z,81.16
2018-09-15T09:11:31.629Z,81.80
2018-09-15T09:12:32.340Z,85.19
2018-09-15T09:13:31.860Z,88.81
2018-09-15T09:14:53.773Z,92.61
2018-09-15T09:15:54.283Z,94.20
2018-09-15T09:16:53.525Z,93.62
2018-09-15T09:17:53.916Z,94.40
2018-09-15T09:18:54.257Z,95.94
2018-09-15T09:19:54.767Z,96.32
2018-09-15T09:20:54.330Z,96.42
2018-09-15T09:21:53.849Z,97.71
2018-09-15T09:22:54.982Z,97.24
2018-09-15T09:23:54.444Z,98.44
2018-09-15T09:24:53.944Z,97.86
2018-09-15T09:25:54.675Z,97.19
2018-09-15T09:26:54.297Z,96.22
2018-09-15T09:27:54.029Z,95.55
2018-09-15T09:28:54.488Z,95.69
2018-09-15T09:30:15.056Z,93.48
2018-09-15T09:31:15.724Z,93.67
2018-09-15T09:32:16.669Z,93.00
2018-09-15T09:33:15.312Z,93.38
2018-09-15T09:34:17.132Z,93.19
2018-09-15T09:35:36.309Z,92.61
2018-09-15T09:36:37.092Z,92.80
2018-09-15T09:37:36.579Z,92.76
2018-09-15T09:38:36.937Z,91.99
2018-09-15T09:39:37.668Z,91.69
2018-09-15T09:40:58.317Z,90.44
2018-09-15T09:41:58.920Z,89.82
2018-09-15T09:42:58.986Z,90.50
2018-09-15T09:43:59.330Z,91.07
2018-09-15T09:44:58.687Z,91.13
2018-09-15T09:45:58.924Z,91.41
2018-09-15T09:46:59.416Z,92.28
2018-09-15T09:47:58.787Z,92.22
2018-09-15T09:48:59.602Z,92.71
2018-09-15T09:49:58.842Z,91.07
2018-09-15T09:50:59.330Z,91.46
2018-09-15T09:52:42.377Z,90.88
2018-09-15T09:53:42.954Z,91.07
2018-09-15T09:54:42.582Z,91.65
2018-09-15T09:55:44.432Z,92.22
2018-09-15T09:56:43.277Z,92.52
2018-09-15T09:57:43.104Z,91.84
2018-09-15T09:58:43.527Z,90.88
2018-09-15T09:59:42.690Z,90.50
2018-09-15T10:00:42.169Z,90.73
2018-09-15T10:01:42.636Z,90.83
2018-09-15T10:03:05.097Z,90.11
2018-09-15T10:04:05.622Z,90.30
2018-09-15T10:05:05.427Z,90.88
2018-09-15T10:06:05.292Z,91.17
2018-09-15T10:07:05.850Z,91.89
2018-09-15T10:08:05.775Z,92.57
2018-09-15T10:09:05.357Z,92.76
2018-09-15T10:10:06.473Z,93.24
2018-09-15T10:11:04.931Z,93.62
2018-09-15T10:12:06.090Z,93.91
2018-09-15T10:13:06.451Z,94.20
2018-09-15T10:14:05.383Z,93.33
2018-09-15T10:15:04.898Z,93.43
2018-09-15T10:16:05.265Z,92.90
2018-09-15T10:17:06.540Z,92.80
2018-09-15T10:18:05.040Z,91.94
2018-09-15T10:19:27.645Z,90.97
2018-09-15T10:20:28.121Z,91.03
2018-09-15T10:21:27.771Z,90.93
2018-09-15T10:22:27.640Z,92.38
2018-09-15T10:23:28.352Z,92.95
2018-09-15T10:24:28.044Z,92.38
2018-09-15T10:25:48.874Z,91.03
2018-09-15T10:26:49.311Z,91.89
2018-09-15T10:28:31.192Z,91.80
2018-09-15T10:29:31.849Z,91.56
2018-09-15T10:30:31.281Z,92.28
2018-09-15T10:31:32.677Z,93.24
2018-09-15T10:32:31.157Z,90.92
2018-09-15T10:33:49.022Z,88.81
2018-09-15T10:34:49.406Z,87.55
2018-09-15T10:35:50.808Z,87.94
2018-09-15T10:36:49.400Z,88.90
2018-09-15T10:37:52.146Z,87.78
2018-09-15T10:38:49.460Z,83.96
2018-09-15T10:39:49.950Z,82.21
2018-09-15T10:41:10.681Z,78.85
2018-09-15T10:42:11.123Z,76.18
2018-09-15T10:43:11.663Z,77.01
2018-09-15T10:44:12.443Z,74.17
2018-09-15T10:45:32.164Z,74.49
2018-09-15T10:46:32.589Z,74.43
2018-09-15T10:47:54.328Z,72.02
2018-09-15T10:48:55.415Z,68.08
2018-09-15T10:49:54.946Z,66.79
2018-09-15T10:50:54.506Z,68.30
2018-09-15T10:51:55.550Z,68.56
2018-09-15T10:52:55.119Z,69.92
2018-09-15T10:53:54.879Z,68.30
2018-09-15T10:54:54.355Z,67.85
2018-09-15T10:55:54.811Z,68.15
2018-09-15T10:56:55.301Z,67.95
2018-09-15T10:58:15.560Z,66.75
2018-09-15T10:59:16.137Z,66.60
2018-09-15T11:00:16.360Z,66.50
2018-09-15T11:01:15.929Z,66.24
2018-09-15T11:02:37.735Z,63.59
2018-09-15T11:03:38.410Z,64.56
2018-09-15T11:04:38.796Z,64.20
2018-09-15T11:06:00.572Z,61.87
2018-09-15T11:07:00.073Z,59.75
2018-09-15T11:07:59.501Z,59.23
2018-09-15T11:09:22.457Z,60.25
2018-09-15T11:10:23.601Z,61.48
2018-09-15T11:11:23.242Z,61.84
2018-09-15T11:12:22.691Z,62.01
2018-09-15T11:13:37.042Z,63.53
2018-09-15T11:14:54.472Z,64.37
2018-09-15T11:15:47.850Z,64.82
2018-09-15T11:16:46.071Z,65.30
2018-09-15T11:17:44.839Z,65.62
2018-09-15T11:19:06.695Z,66.75
2018-09-15T11:20:07.311Z,67.05
2018-09-15T11:21:27.967Z,68.24
2018-09-15T11:22:28.303Z,69.46
2018-09-15T11:23:29.107Z,70.52
2018-09-15T11:24:28.756Z,71.30
2018-09-15T11:25:30.863Z,72.03
2018-09-15T11:26:31.719Z,72.52
2018-09-15T11:27:28.049Z,72.86
2018-09-15T11:28:40.033Z,73.69
2018-09-15T11:29:31.181Z,74.05
2018-09-15T11:30:29.157Z,75.59
2018-09-15T11:31:28.628Z,75.84
2018-09-15T11:32:28.358Z,76.57
2018-09-15T11:33:49.398Z,77.88
2018-09-15T11:34:50.449Z,78.27
2018-09-15T11:35:50.122Z,79.23
2018-09-15T11:36:50.196Z,79.58
2018-09-15T11:37:49.919Z,80.44
2018-09-15T11:38:49.447Z,81.21
2018-09-15T11:40:32.081Z,84.92
2018-09-15T11:41:32.911Z,87.62
2018-09-15T11:42:32.975Z,89.88
2018-09-15T11:43:32.394Z,92.67
2018-09-15T11:44:55.737Z,95.75
2018-09-15T11:45:57.195Z,98.96
2018-09-15T11:46:56.529Z,99.99
2018-09-15T11:47:56.142Z,99.99
2018-09-15T11:48:56.715Z,99.99
2018-09-15T11:49:56.142Z,99.99
2018-09-15T11:50:57.138Z,99.99
2018-09-15T11:51:56.705Z,99.99
2018-09-15T11:52:56.464Z,99.99
2018-09-15T11:53:57.307Z,99.99
2018-09-15T11:54:55.932Z,99.99
2018-09-15T11:55:56.227Z,99.99
2018-09-15T11:56:55.738Z,99.99
2018-09-15T11:58:18.587Z,99.99
2018-09-15T11:59:19.590Z,99.99
2018-09-15T12:00:19.971Z,99.99
2018-09-15T12:01:18.604Z,99.99
2018-09-15T12:02:42.328Z,99.99
2018-09-15T12:03:43.089Z,99.99
2018-09-15T12:04:42.885Z,99.99
2018-09-15T12:05:42.475Z,99.99
2018-09-15T12:06:42.726Z,99.99
2018-09-15T12:07:42.227Z,99.99
2018-09-15T12:08:42.675Z,99.99
2018-09-15T12:09:43.895Z,99.99
2018-09-15T12:10:42.628Z,99.99
2018-09-15T12:11:44.223Z,99.99
2018-09-15T12:12:42.742Z,99.99
2018-09-15T12:13:44.079Z,99.99
2018-09-15T12:14:42.842Z,99.99
2018-09-15T12:15:43.551Z,99.69
2018-09-15T12:17:06.143Z,94.87
2018-09-15T12:18:27.694Z,88.97
2018-09-15T12:19:52.722Z,84.71
2018-09-15T12:20:54.082Z,77.30
2018-09-15T12:21:53.554Z,74.24
2018-09-15T12:23:15.712Z,72.57
2018-09-15T12:24:16.435Z,72.31
2018-09-15T12:25:16.413Z,69.15
2018-09-15T12:26:16.032Z,67.69
2018-09-15T12:27:15.432Z,66.08
2018-09-15T12:28:37.517Z,65.11
2018-09-15T12:29:37.701Z,64.14
2018-09-15T12:30:39.526Z,63.75
2018-09-15T12:31:38.103Z,63.82
2018-09-15T12:32:37.539Z,65.24
2018-09-15T12:33:38.772Z,65.17
2018-09-15T12:34:39.422Z,66.69
2018-09-15T12:35:39.383Z,67.66
2018-09-15T12:36:38.670Z,68.21
2018-09-15T12:41:15.062Z,70.14
2018-09-15T12:42:12.395Z,70.78
2018-09-15T12:43:12.393Z,72.22
2018-09-15T12:44:11.818Z,71.80
2018-09-15T12:45:11.374Z,72.67
2018-09-15T12:46:13.488Z,72.54
2018-09-15T12:47:12.116Z,73.11
2018-09-15T12:48:12.893Z,73.47
2018-09-15T12:49:34.387Z,75.01
2018-09-15T12:50:33.741Z,74.62
2018-09-15T12:51:34.454Z,74.52
2018-09-15T12:52:35.249Z,75.78
2018-09-15T12:53:34.692Z,76.55
2018-09-15T12:54:34.113Z,76.65
2018-09-15T12:55:34.876Z,76.26
2018-09-15T12:56:34.946Z,76.07
2018-09-15T12:57:35.611Z,76.36
2018-09-15T12:58:55.631Z,76.80
2018-09-15T12:59:56.019Z,77.28
2018-09-15T13:00:55.578Z,77.96
2018-09-15T13:01:55.975Z,78.69
2018-09-15T13:02:55.504Z,78.69
2018-09-15T13:03:55.950Z,79.08
2018-09-15T13:04:55.219Z,79.94
2018-09-15T13:05:56.192Z,79.85
2018-09-15T13:06:56.325Z,80.29
2018-09-15T13:08:17.395Z,81.16
2018-09-15T13:09:17.917Z,82.50
2018-09-15T13:10:17.672Z,82.89
2018-09-15T13:11:18.216Z,82.12
2018-09-15T13:12:19.339Z,82.21
2018-09-15T13:13:17.835Z,82.02
2018-09-15T13:14:18.889Z,82.60
2018-09-15T13:15:18.627Z,83.28
2018-09-15T13:16:18.662Z,83.75
2018-09-15T13:17:20.990Z,84.10
2018-09-15T13:18:17.999Z,84.19
2018-09-15T13:19:19.497Z,85.00
2018-09-15T13:20:18.767Z,84.43
2018-09-15T13:21:18.650Z,84.05
2018-09-15T13:22:18.450Z,82.79
2018-09-15T13:23:18.204Z,82.21
2018-09-15T13:24:17.793Z,81.54
2018-09-15T13:25:19.083Z,80.08
2018-09-15T13:26:17.450Z,78.77
2018-09-15T13:27:17.863Z,77.71
2018-09-15T13:28:18.311Z,76.53
2018-09-15T13:29:18.426Z,75.12
2018-09-15T13:30:18.463Z,73.19
2018-09-15T13:31:17.959Z,72.16
2018-09-15T13:32:17.297Z,71.33
2018-09-15T13:33:18.059Z,70.30
2018-09-15T13:34:17.809Z,70.10
2018-09-15T13:35:18.184Z,69.75